sensor_id;sensor_type;location;lat;lon;timestamp;P1;durP1;ratioP1;P2;durP2;ratioP2
7273;SDS011;3678;60.002;17.846;2022-10-31T00:01:59;8.90;;;4.40;;
7273;SDS011;3678;60.002;17.846;2022-10-31T00:04:26;7.43;;;3.60;;
7273;SDS011;3678;60.002;17.846;2022-10-31T00:06:54;8.50;;;3.57;;
7273;SDS011;3678;60.002;17.846;2022-10-31T00:09:21;6.37;;;2.67;;
7273;SDS011;3678;60.002;17.846;2022-10-31T00:11:49;6.40;;;2.57;;
7273;SDS011;3678;60.002;17.846;2022-10-31T00:14:16;6.63;;;2.40;;
7273;SDS011;3678;60.002;17.846;2022-10-31T00:16:43;8.20;;;3.07;;
7273;SDS011;3678;60.002;17.846;2022-10-31T00:19:10;6.07;;;2.50;;
7273;SDS011;3678;60.002;17.846;2022-10-31T00:21:37;5.20;;;2.73;;
7273;SDS011;3678;60.002;17.846;2022-10-31T00:24:06;5.60;;;3.03;;
7273;SDS011;3678;60.002;17.846;2022-10-31T00:26:33;9.40;;;2.90;;
7273;SDS011;3678;60.002;17.846;2022-10-31T00:29:01;5.47;;;2.47;;
7273;SDS011;3678;60.002;17.846;2022-10-31T00:31:28;4.73;;;2.20;;
7273;SDS011;3678;60.002;17.846;2022-10-31T00:33:55;5.13;;;2.20;;
7273;SDS011;3678;60.002;17.846;2022-10-31T00:36:22;3.90;;;1.80;;
7273;SDS011;3678;60.002;17.846;2022-10-31T00:38:49;4.40;;;2.30;;
7273;SDS011;3678;60.002;17.846;2022-10-31T00:41:18;29.57;;;5.73;;
7273;SDS011;3678;60.002;17.846;2022-10-31T00:43:45;2.27;;;1.70;;
7273;SDS011;3678;60.002;17.846;2022-10-31T00:46:12;3.47;;;2.10;;
7273;SDS011;3678;60.002;17.846;2022-10-31T00:48:40;6.83;;;2.83;;
7273;SDS011;3678;60.002;17.846;2022-10-31T00:51:07;32.27;;;3.57;;
7273;SDS011;3678;60.002;17.846;2022-10-31T00:53:34;4.43;;;2.40;;
7273;SDS011;3678;60.002;17.846;2022-10-31T00:56:01;5.57;;;2.53;;
7273;SDS011;3678;60.002;17.846;2022-10-31T00:58:30;45.27;;;5.53;;
7273;SDS011;3678;60.002;17.846;2022-10-31T01:00:57;73.57;;;7.57;;
7273;SDS011;3678;60.002;17.846;2022-10-31T01:03:25;33.10;;;3.70;;
7273;SDS011;3678;60.002;17.846;2022-10-31T01:05:59;13.80;;;2.97;;
7273;SDS011;3678;60.002;17.846;2022-10-31T01:08:26;8.43;;;2.40;;
7273;SDS011;3678;60.002;17.846;2022-10-31T01:11:04;13.70;;;3.27;;
7273;SDS011;3678;60.002;17.846;2022-10-31T01:13:33;3.77;;;2.47;;
7273;SDS011;3678;60.002;17.846;2022-10-31T01:16:01;3.87;;;2.60;;
7273;SDS011;3678;60.002;17.846;2022-10-31T01:18:29;5.07;;;2.23;;
7273;SDS011;3678;60.002;17.846;2022-10-31T01:20:57;4.17;;;2.47;;
7273;SDS011;3678;60.002;17.846;2022-10-31T01:23:25;5.43;;;2.50;;
7273;SDS011;3678;60.002;17.846;2022-10-31T01:25:58;3.60;;;2.00;;
7273;SDS011;3678;60.002;17.846;2022-10-31T01:28:25;2.97;;;2.40;;
7273;SDS011;3678;60.002;17.846;2022-10-31T01:30:54;25.97;;;4.03;;
7273;SDS011;3678;60.002;17.846;2022-10-31T01:33:21;8.97;;;3.00;;
7273;SDS011;3678;60.002;17.846;2022-10-31T01:35:48;7.83;;;3.30;;
7273;SDS011;3678;60.002;17.846;2022-10-31T01:38:15;6.40;;;3.00;;
7273;SDS011;3678;60.002;17.846;2022-10-31T01:40:42;8.77;;;3.23;;
7273;SDS011;3678;60.002;17.846;2022-10-31T01:43:11;10.27;;;3.80;;
7273;SDS011;3678;60.002;17.846;2022-10-31T01:45:39;6.53;;;3.23;;
7273;SDS011;3678;60.002;17.846;2022-10-31T01:48:10;22.73;;;4.47;;
7273;SDS011;3678;60.002;17.846;2022-10-31T01:50:38;38.83;;;5.57;;
7273;SDS011;3678;60.002;17.846;2022-10-31T01:53:06;9.53;;;4.17;;
7273;SDS011;3678;60.002;17.846;2022-10-31T01:55:35;11.63;;;4.57;;
7273;SDS011;3678;60.002;17.846;2022-10-31T01:58:06;12.20;;;3.97;;
7273;SDS011;3678;60.002;17.846;2022-10-31T02:00:34;7.07;;;3.53;;
7273;SDS011;3678;60.002;17.846;2022-10-31T02:03:01;15.23;;;4.77;;
7273;SDS011;3678;60.002;17.846;2022-10-31T02:05:31;9.57;;;4.17;;
7273;SDS011;3678;60.002;17.846;2022-10-31T02:07:59;17.50;;;4.80;;
7273;SDS011;3678;60.002;17.846;2022-10-31T02:10:29;31.03;;;4.90;;
7273;SDS011;3678;60.002;17.846;2022-10-31T02:12:57;24.60;;;4.23;;
7273;SDS011;3678;60.002;17.846;2022-10-31T02:15:25;28.40;;;4.43;;
7273;SDS011;3678;60.002;17.846;2022-10-31T02:17:52;17.07;;;4.30;;
7273;SDS011;3678;60.002;17.846;2022-10-31T02:20:20;12.70;;;3.70;;
7273;SDS011;3678;60.002;17.846;2022-10-31T02:22:54;10.30;;;3.30;;
7273;SDS011;3678;60.002;17.846;2022-10-31T02:25:31;18.60;;;3.40;;
7273;SDS011;3678;60.002;17.846;2022-10-31T02:28:18;27.53;;;3.70;;
7273;SDS011;3678;60.002;17.846;2022-10-31T02:30:55;15.17;;;3.83;;
7273;SDS011;3678;60.002;17.846;2022-10-31T02:33:24;16.97;;;5.57;;
7273;SDS011;3678;60.002;17.846;2022-10-31T02:35:55;12.03;;;5.07;;
7273;SDS011;3678;60.002;17.846;2022-10-31T02:38:30;9.63;;;5.10;;
7273;SDS011;3678;60.002;17.846;2022-10-31T02:41:00;8.30;;;3.40;;
7273;SDS011;3678;60.002;17.846;2022-10-31T02:43:29;8.40;;;3.53;;
7273;SDS011;3678;60.002;17.846;2022-10-31T02:46:02;6.57;;;3.10;;
7273;SDS011;3678;60.002;17.846;2022-10-31T02:48:32;7.13;;;3.10;;
7273;SDS011;3678;60.002;17.846;2022-10-31T02:51:01;8.83;;;3.80;;
7273;SDS011;3678;60.002;17.846;2022-10-31T02:53:31;10.67;;;3.60;;
7273;SDS011;3678;60.002;17.846;2022-10-31T02:55:59;7.63;;;3.70;;
7273;SDS011;3678;60.002;17.846;2022-10-31T02:58:28;8.07;;;4.03;;
7273;SDS011;3678;60.002;17.846;2022-10-31T03:03:48;5.47;;;3.60;;
7273;SDS011;3678;60.002;17.846;2022-10-31T03:06:20;6.53;;;2.93;;
7273;SDS011;3678;60.002;17.846;2022-10-31T03:08:52;7.10;;;3.00;;
7273;SDS011;3678;60.002;17.846;2022-10-31T03:11:22;5.40;;;2.77;;
7273;SDS011;3678;60.002;17.846;2022-10-31T03:13:50;6.47;;;3.30;;
7273;SDS011;3678;60.002;17.846;2022-10-31T03:16:20;5.47;;;3.70;;
7273;SDS011;3678;60.002;17.846;2022-10-31T03:18:52;8.33;;;4.20;;
7273;SDS011;3678;60.002;17.846;2022-10-31T03:21:21;9.30;;;3.97;;
7273;SDS011;3678;60.002;17.846;2022-10-31T03:23:49;8.00;;;4.33;;
7273;SDS011;3678;60.002;17.846;2022-10-31T03:26:18;7.03;;;4.27;;
7273;SDS011;3678;60.002;17.846;2022-10-31T03:28:48;5.87;;;3.50;;
7273;SDS011;3678;60.002;17.846;2022-10-31T03:31:16;32.40;;;5.80;;
7273;SDS011;3678;60.002;17.846;2022-10-31T03:33:44;14.63;;;4.80;;
7273;SDS011;3678;60.002;17.846;2022-10-31T03:36:14;8.40;;;4.60;;
7273;SDS011;3678;60.002;17.846;2022-10-31T03:38:42;11.40;;;4.20;;
7273;SDS011;3678;60.002;17.846;2022-10-31T03:41:13;11.80;;;4.93;;
7273;SDS011;3678;60.002;17.846;2022-10-31T03:43:42;6.33;;;3.73;;
7273;SDS011;3678;60.002;17.846;2022-10-31T03:46:11;8.07;;;4.53;;
7273;SDS011;3678;60.002;17.846;2022-10-31T03:48:38;7.37;;;4.47;;
7273;SDS011;3678;60.002;17.846;2022-10-31T03:51:07;11.33;;;4.97;;
7273;SDS011;3678;60.002;17.846;2022-10-31T03:53:37;11.33;;;4.80;;
7273;SDS011;3678;60.002;17.846;2022-10-31T03:56:07;8.97;;;4.10;;
7273;SDS011;3678;60.002;17.846;2022-10-31T03:58:36;10.20;;;4.47;;
7273;SDS011;3678;60.002;17.846;2022-10-31T04:01:05;11.30;;;5.25;;
7273;SDS011;3678;60.002;17.846;2022-10-31T04:03:34;14.57;;;5.33;;
7273;SDS011;3678;60.002;17.846;2022-10-31T04:06:03;9.87;;;4.37;;
7273;SDS011;3678;60.002;17.846;2022-10-31T04:08:31;13.37;;;4.27;;
7273;SDS011;3678;60.002;17.846;2022-10-31T04:11:01;7.20;;;3.83;;
7273;SDS011;3678;60.002;17.846;2022-10-31T04:13:30;9.07;;;3.97;;
7273;SDS011;3678;60.002;17.846;2022-10-31T04:15:58;7.97;;;3.83;;
7273;SDS011;3678;60.002;17.846;2022-10-31T04:18:26;5.63;;;3.40;;
7273;SDS011;3678;60.002;17.846;2022-10-31T04:20:59;9.47;;;3.90;;
7273;SDS011;3678;60.002;17.846;2022-10-31T04:23:26;10.90;;;3.90;;
7273;SDS011;3678;60.002;17.846;2022-10-31T04:25:53;6.80;;;3.23;;
7273;SDS011;3678;60.002;17.846;2022-10-31T04:28:22;8.67;;;3.97;;
7273;SDS011;3678;60.002;17.846;2022-10-31T04:30:49;6.80;;;3.70;;
7273;SDS011;3678;60.002;17.846;2022-10-31T04:33:16;7.87;;;3.33;;
7273;SDS011;3678;60.002;17.846;2022-10-31T04:35:44;7.73;;;3.60;;
7273;SDS011;3678;60.002;17.846;2022-10-31T04:38:11;7.57;;;3.43;;
7273;SDS011;3678;60.002;17.846;2022-10-31T04:40:38;7.63;;;3.50;;
7273;SDS011;3678;60.002;17.846;2022-10-31T04:43:05;6.43;;;3.43;;
7273;SDS011;3678;60.002;17.846;2022-10-31T04:45:34;6.37;;;2.97;;
7273;SDS011;3678;60.002;17.846;2022-10-31T04:48:01;10.67;;;3.33;;
7273;SDS011;3678;60.002;17.846;2022-10-31T04:50:28;7.50;;;3.60;;
7273;SDS011;3678;60.002;17.846;2022-10-31T04:52:55;7.30;;;3.30;;
7273;SDS011;3678;60.002;17.846;2022-10-31T04:55:22;6.47;;;3.30;;
7273;SDS011;3678;60.002;17.846;2022-10-31T04:57:50;6.50;;;3.47;;
7273;SDS011;3678;60.002;17.846;2022-10-31T05:00:18;8.90;;;3.57;;
7273;SDS011;3678;60.002;17.846;2022-10-31T05:02:47;7.03;;;3.00;;
7273;SDS011;3678;60.002;17.846;2022-10-31T05:05:15;7.50;;;3.53;;
7273;SDS011;3678;60.002;17.846;2022-10-31T05:07:43;5.67;;;3.13;;
7273;SDS011;3678;60.002;17.846;2022-10-31T05:10:10;7.57;;;3.50;;
7273;SDS011;3678;60.002;17.846;2022-10-31T05:12:40;6.80;;;3.10;;
7273;SDS011;3678;60.002;17.846;2022-10-31T05:15:12;8.10;;;3.80;;
7273;SDS011;3678;60.002;17.846;2022-10-31T05:17:39;6.90;;;3.60;;
7273;SDS011;3678;60.002;17.846;2022-10-31T05:20:08;7.13;;;3.90;;
7273;SDS011;3678;60.002;17.846;2022-10-31T05:22:35;7.83;;;3.73;;
7273;SDS011;3678;60.002;17.846;2022-10-31T05:25:02;7.70;;;3.30;;
7273;SDS011;3678;60.002;17.846;2022-10-31T05:27:30;8.60;;;3.73;;
7273;SDS011;3678;60.002;17.846;2022-10-31T05:29:57;10.63;;;3.85;;
7273;SDS011;3678;60.002;17.846;2022-10-31T05:32:24;4.67;;;3.20;;
7273;SDS011;3678;60.002;17.846;2022-10-31T05:34:51;7.73;;;3.63;;
7273;SDS011;3678;60.002;17.846;2022-10-31T05:37:20;5.07;;;3.70;;
7273;SDS011;3678;60.002;17.846;2022-10-31T05:39:47;6.80;;;3.67;;
7273;SDS011;3678;60.002;17.846;2022-10-31T05:42:14;6.23;;;3.57;;
7273;SDS011;3678;60.002;17.846;2022-10-31T05:44:41;4.07;;;2.83;;
7273;SDS011;3678;60.002;17.846;2022-10-31T05:47:08;5.57;;;3.10;;
7273;SDS011;3678;60.002;17.846;2022-10-31T05:49:36;6.10;;;2.93;;
7273;SDS011;3678;60.002;17.846;2022-10-31T05:52:03;7.00;;;3.50;;
7273;SDS011;3678;60.002;17.846;2022-10-31T05:54:32;6.37;;;3.47;;
7273;SDS011;3678;60.002;17.846;2022-10-31T05:56:59;5.27;;;3.30;;
7273;SDS011;3678;60.002;17.846;2022-10-31T05:59:26;6.23;;;3.10;;
7273;SDS011;3678;60.002;17.846;2022-10-31T06:01:53;7.15;;;3.58;;
7273;SDS011;3678;60.002;17.846;2022-10-31T06:04:20;7.70;;;3.53;;
7273;SDS011;3678;60.002;17.846;2022-10-31T06:06:47;4.37;;;3.30;;
7273;SDS011;3678;60.002;17.846;2022-10-31T06:09:14;7.17;;;3.40;;
7273;SDS011;3678;60.002;17.846;2022-10-31T06:11:43;5.27;;;2.67;;
7273;SDS011;3678;60.002;17.846;2022-10-31T06:14:10;6.13;;;3.23;;
7273;SDS011;3678;60.002;17.846;2022-10-31T06:16:37;13.53;;;5.63;;
7273;SDS011;3678;60.002;17.846;2022-10-31T06:19:05;9.87;;;4.50;;
7273;SDS011;3678;60.002;17.846;2022-10-31T06:21:32;7.77;;;3.87;;
7273;SDS011;3678;60.002;17.846;2022-10-31T06:23:59;7.97;;;4.80;;
7273;SDS011;3678;60.002;17.846;2022-10-31T06:26:26;7.10;;;3.80;;
7273;SDS011;3678;60.002;17.846;2022-10-31T06:28:55;8.63;;;3.57;;
7273;SDS011;3678;60.002;17.846;2022-10-31T06:31:22;5.30;;;3.73;;
7273;SDS011;3678;60.002;17.846;2022-10-31T06:33:49;6.30;;;3.50;;
7273;SDS011;3678;60.002;17.846;2022-10-31T06:36:16;6.70;;;3.40;;
7273;SDS011;3678;60.002;17.846;2022-10-31T06:38:43;7.17;;;3.23;;
7273;SDS011;3678;60.002;17.846;2022-10-31T06:41:10;6.43;;;3.30;;
7273;SDS011;3678;60.002;17.846;2022-10-31T06:43:37;9.67;;;3.83;;
7273;SDS011;3678;60.002;17.846;2022-10-31T06:46:06;7.03;;;3.60;;
7273;SDS011;3678;60.002;17.846;2022-10-31T06:48:33;8.27;;;3.77;;
7273;SDS011;3678;60.002;17.846;2022-10-31T06:51:00;8.00;;;3.20;;
7273;SDS011;3678;60.002;17.846;2022-10-31T06:53:28;8.20;;;4.03;;
7273;SDS011;3678;60.002;17.846;2022-10-31T06:55:55;10.00;;;4.30;;
7273;SDS011;3678;60.002;17.846;2022-10-31T06:58:23;9.70;;;3.83;;
7273;SDS011;3678;60.002;17.846;2022-10-31T07:00:50;8.68;;;4.28;;
7273;SDS011;3678;60.002;17.846;2022-10-31T07:03:18;10.00;;;4.70;;
7273;SDS011;3678;60.002;17.846;2022-10-31T07:05:46;8.67;;;3.93;;
7273;SDS011;3678;60.002;17.846;2022-10-31T07:08:13;8.03;;;4.90;;
7273;SDS011;3678;60.002;17.846;2022-10-31T07:10:41;7.30;;;3.90;;
7273;SDS011;3678;60.002;17.846;2022-10-31T07:13:10;6.37;;;4.00;;
7273;SDS011;3678;60.002;17.846;2022-10-31T07:15:37;8.07;;;4.27;;
7273;SDS011;3678;60.002;17.846;2022-10-31T07:18:06;7.00;;;3.93;;
7273;SDS011;3678;60.002;17.846;2022-10-31T07:20:35;6.20;;;4.10;;
7273;SDS011;3678;60.002;17.846;2022-10-31T07:23:02;7.37;;;3.97;;
7273;SDS011;3678;60.002;17.846;2022-10-31T07:25:29;8.50;;;4.03;;
7273;SDS011;3678;60.002;17.846;2022-10-31T07:27:57;7.40;;;4.00;;
7273;SDS011;3678;60.002;17.846;2022-10-31T07:30:24;8.07;;;4.93;;
7273;SDS011;3678;60.002;17.846;2022-10-31T07:32:51;7.33;;;4.17;;
7273;SDS011;3678;60.002;17.846;2022-10-31T07:35:19;10.83;;;4.53;;
7273;SDS011;3678;60.002;17.846;2022-10-31T07:37:48;10.77;;;4.20;;
7273;SDS011;3678;60.002;17.846;2022-10-31T07:40:16;6.63;;;4.07;;
7273;SDS011;3678;60.002;17.846;2022-10-31T07:42:44;10.63;;;4.43;;
7273;SDS011;3678;60.002;17.846;2022-10-31T07:45:12;10.10;;;4.60;;
7273;SDS011;3678;60.002;17.846;2022-10-31T07:47:39;10.27;;;4.73;;
7273;SDS011;3678;60.002;17.846;2022-10-31T07:50:07;8.43;;;4.50;;
7273;SDS011;3678;60.002;17.846;2022-10-31T07:52:34;8.47;;;4.17;;
7273;SDS011;3678;60.002;17.846;2022-10-31T07:55:03;8.27;;;4.47;;
7273;SDS011;3678;60.002;17.846;2022-10-31T07:57:30;9.57;;;4.67;;
7273;SDS011;3678;60.002;17.846;2022-10-31T07:59:58;9.00;;;4.37;;
7273;SDS011;3678;60.002;17.846;2022-10-31T08:02:25;8.53;;;4.33;;
7273;SDS011;3678;60.002;17.846;2022-10-31T08:04:52;9.13;;;4.07;;
7273;SDS011;3678;60.002;17.846;2022-10-31T08:07:20;12.10;;;5.03;;
7273;SDS011;3678;60.002;17.846;2022-10-31T08:09:47;10.07;;;4.27;;
7273;SDS011;3678;60.002;17.846;2022-10-31T08:12:15;9.73;;;4.63;;
7273;SDS011;3678;60.002;17.846;2022-10-31T08:14:43;9.87;;;5.50;;
7273;SDS011;3678;60.002;17.846;2022-10-31T08:17:10;13.67;;;4.73;;
7273;SDS011;3678;60.002;17.846;2022-10-31T08:19:37;8.60;;;4.80;;
7273;SDS011;3678;60.002;17.846;2022-10-31T08:22:04;10.10;;;5.03;;
7273;SDS011;3678;60.002;17.846;2022-10-31T08:24:32;12.63;;;4.87;;
7273;SDS011;3678;60.002;17.846;2022-10-31T08:26:59;10.37;;;5.00;;
7273;SDS011;3678;60.002;17.846;2022-10-31T08:29:27;15.83;;;6.13;;
7273;SDS011;3678;60.002;17.846;2022-10-31T08:31:55;21.50;;;7.60;;
7273;SDS011;3678;60.002;17.846;2022-10-31T08:34:24;16.23;;;6.78;;
7273;SDS011;3678;60.002;17.846;2022-10-31T08:36:51;16.60;;;6.57;;
7273;SDS011;3678;60.002;17.846;2022-10-31T08:39:18;17.63;;;7.17;;
7273;SDS011;3678;60.002;17.846;2022-10-31T08:41:46;16.97;;;5.90;;
7273;SDS011;3678;60.002;17.846;2022-10-31T08:44:13;14.57;;;7.27;;
7273;SDS011;3678;60.002;17.846;2022-10-31T08:46:42;23.88;;;8.90;;
7273;SDS011;3678;60.002;17.846;2022-10-31T08:49:09;19.90;;;7.30;;
7273;SDS011;3678;60.002;17.846;2022-10-31T08:51:36;22.33;;;6.73;;
7273;SDS011;3678;60.002;17.846;2022-10-31T08:54:03;19.77;;;6.73;;
7273;SDS011;3678;60.002;17.846;2022-10-31T08:56:30;17.83;;;6.77;;
7273;SDS011;3678;60.002;17.846;2022-10-31T08:58:58;22.83;;;7.37;;
7273;SDS011;3678;60.002;17.846;2022-10-31T09:01:26;18.60;;;6.50;;
7273;SDS011;3678;60.002;17.846;2022-10-31T09:03:54;18.73;;;6.50;;
7273;SDS011;3678;60.002;17.846;2022-10-31T09:06:22;21.73;;;7.40;;
7273;SDS011;3678;60.002;17.846;2022-10-31T09:08:49;24.00;;;7.33;;
7273;SDS011;3678;60.002;17.846;2022-10-31T09:11:16;23.60;;;7.13;;
7273;SDS011;3678;60.002;17.846;2022-10-31T09:13:43;21.40;;;8.13;;
7273;SDS011;3678;60.002;17.846;2022-10-31T09:16:10;28.42;;;10.15;;
7273;SDS011;3678;60.002;17.846;2022-10-31T09:18:37;23.73;;;7.97;;
7273;SDS011;3678;60.002;17.846;2022-10-31T09:21:07;27.60;;;8.10;;
7273;SDS011;3678;60.002;17.846;2022-10-31T09:23:34;25.97;;;8.13;;
7273;SDS011;3678;60.002;17.846;2022-10-31T09:26:01;23.80;;;7.40;;
7273;SDS011;3678;60.002;17.846;2022-10-31T09:28:28;24.57;;;7.47;;
7273;SDS011;3678;60.002;17.846;2022-10-31T09:30:56;24.97;;;8.37;;
7273;SDS011;3678;60.002;17.846;2022-10-31T09:33:23;27.50;;;7.27;;
7273;SDS011;3678;60.002;17.846;2022-10-31T09:35:51;25.53;;;8.97;;
7273;SDS011;3678;60.002;17.846;2022-10-31T09:38:20;26.87;;;8.50;;
7273;SDS011;3678;60.002;17.846;2022-10-31T09:40:49;26.73;;;8.53;;
7273;SDS011;3678;60.002;17.846;2022-10-31T09:43:21;21.80;;;7.60;;
7273;SDS011;3678;60.002;17.846;2022-10-31T09:45:53;18.60;;;7.10;;
7273;SDS011;3678;60.002;17.846;2022-10-31T09:48:23;23.33;;;8.47;;
7273;SDS011;3678;60.002;17.846;2022-10-31T09:50:54;20.80;;;7.80;;
7273;SDS011;3678;60.002;17.846;2022-10-31T09:53:25;20.70;;;7.33;;
7273;SDS011;3678;60.002;17.846;2022-10-31T09:55:54;18.33;;;7.03;;
7273;SDS011;3678;60.002;17.846;2022-10-31T09:58:23;22.43;;;8.13;;
7273;SDS011;3678;60.002;17.846;2022-10-31T10:00:51;20.90;;;9.20;;
7273;SDS011;3678;60.002;17.846;2022-10-31T10:03:22;17.93;;;7.47;;
7273;SDS011;3678;60.002;17.846;2022-10-31T10:05:54;22.50;;;9.00;;
7273;SDS011;3678;60.002;17.846;2022-10-31T10:08:25;21.30;;;8.23;;
7273;SDS011;3678;60.002;17.846;2022-10-31T10:10:55;15.17;;;7.17;;
7273;SDS011;3678;60.002;17.846;2022-10-31T10:13:29;20.90;;;8.33;;
7273;SDS011;3678;60.002;17.846;2022-10-31T10:18:45;24.80;;;9.60;;
7273;SDS011;3678;60.002;17.846;2022-10-31T10:21:20;22.37;;;8.13;;
7273;SDS011;3678;60.002;17.846;2022-10-31T10:23:54;26.37;;;8.87;;
7273;SDS011;3678;60.002;17.846;2022-10-31T10:26:25;20.03;;;9.20;;
7273;SDS011;3678;60.002;17.846;2022-10-31T10:28:56;17.33;;;7.63;;
7273;SDS011;3678;60.002;17.846;2022-10-31T10:31:25;21.83;;;10.82;;
7273;SDS011;3678;60.002;17.846;2022-10-31T10:33:57;24.17;;;10.00;;
7273;SDS011;3678;60.002;17.846;2022-10-31T10:36:27;21.20;;;8.60;;
7273;SDS011;3678;60.002;17.846;2022-10-31T10:38:57;18.97;;;8.53;;
7273;SDS011;3678;60.002;17.846;2022-10-31T10:41:27;15.80;;;7.63;;
7273;SDS011;3678;60.002;17.846;2022-10-31T10:43:56;15.50;;;7.10;;
7273;SDS011;3678;60.002;17.846;2022-10-31T10:46:24;19.25;;;9.80;;
7273;SDS011;3678;60.002;17.846;2022-10-31T10:49:13;17.87;;;7.53;;
7273;SDS011;3678;60.002;17.846;2022-10-31T10:51:44;15.43;;;7.00;;
7273;SDS011;3678;60.002;17.846;2022-10-31T10:54:16;15.77;;;7.00;;
7273;SDS011;3678;60.002;17.846;2022-10-31T10:56:51;13.77;;;7.07;;
7273;SDS011;3678;60.002;17.846;2022-10-31T10:59:20;11.07;;;6.10;;
7273;SDS011;3678;60.002;17.846;2022-10-31T11:01:48;14.40;;;7.07;;
7273;SDS011;3678;60.002;17.846;2022-10-31T11:07:03;11.57;;;6.13;;
7273;SDS011;3678;60.002;17.846;2022-10-31T11:09:32;16.17;;;8.80;;
7273;SDS011;3678;60.002;17.846;2022-10-31T11:11:59;13.30;;;6.73;;
7273;SDS011;3678;60.002;17.846;2022-10-31T11:14:27;13.93;;;5.97;;
7273;SDS011;3678;60.002;17.846;2022-10-31T11:16:55;13.32;;;7.50;;
7273;SDS011;3678;60.002;17.846;2022-10-31T11:19:23;13.63;;;5.97;;
7273;SDS011;3678;60.002;17.846;2022-10-31T11:21:51;10.40;;;6.10;;
7273;SDS011;3678;60.002;17.846;2022-10-31T11:24:19;12.63;;;6.50;;
7273;SDS011;3678;60.002;17.846;2022-10-31T11:26:48;10.97;;;6.40;;
7273;SDS011;3678;60.002;17.846;2022-10-31T11:29:16;10.63;;;6.37;;
7273;SDS011;3678;60.002;17.846;2022-10-31T11:31:44;10.83;;;5.70;;
7273;SDS011;3678;60.002;17.846;2022-10-31T11:34:13;11.47;;;5.90;;
7273;SDS011;3678;60.002;17.846;2022-10-31T11:36:42;12.53;;;6.40;;
7273;SDS011;3678;60.002;17.846;2022-10-31T11:39:14;15.60;;;7.75;;
7273;SDS011;3678;60.002;17.846;2022-10-31T11:41:42;14.27;;;7.10;;
7273;SDS011;3678;60.002;17.846;2022-10-31T11:44:13;15.70;;;7.57;;
7273;SDS011;3678;60.002;17.846;2022-10-31T11:46:42;10.07;;;5.80;;
7273;SDS011;3678;60.002;17.846;2022-10-31T11:49:13;10.70;;;6.43;;
7273;SDS011;3678;60.002;17.846;2022-10-31T11:51:42;13.13;;;6.40;;
7273;SDS011;3678;60.002;17.846;2022-10-31T11:54:17;13.00;;;5.93;;
7273;SDS011;3678;60.002;17.846;2022-10-31T11:56:46;12.90;;;6.23;;
7273;SDS011;3678;60.002;17.846;2022-10-31T11:59:23;9.57;;;6.23;;
7273;SDS011;3678;60.002;17.846;2022-10-31T12:01:51;11.32;;;7.22;;
7273;SDS011;3678;60.002;17.846;2022-10-31T12:04:19;10.97;;;5.90;;
7273;SDS011;3678;60.002;17.846;2022-10-31T12:06:50;9.67;;;5.37;;
7273;SDS011;3678;60.002;17.846;2022-10-31T12:09:19;9.83;;;5.37;;
7273;SDS011;3678;60.002;17.846;2022-10-31T12:11:51;11.33;;;5.13;;
7273;SDS011;3678;60.002;17.846;2022-10-31T12:14:25;8.53;;;4.67;;
7273;SDS011;3678;60.002;17.846;2022-10-31T12:16:56;6.27;;;3.87;;
7273;SDS011;3678;60.002;17.846;2022-10-31T12:19:27;7.97;;;3.83;;
7273;SDS011;3678;60.002;17.846;2022-10-31T12:21:59;5.47;;;3.67;;
7273;SDS011;3678;60.002;17.846;2022-10-31T12:24:35;5.83;;;4.10;;
7273;SDS011;3678;60.002;17.846;2022-10-31T12:27:09;6.57;;;4.23;;
7273;SDS011;3678;60.002;17.846;2022-10-31T12:29:44;7.47;;;4.00;;
7273;SDS011;3678;60.002;17.846;2022-10-31T12:32:16;4.90;;;3.70;;
7273;SDS011;3678;60.002;17.846;2022-10-31T12:34:49;7.17;;;3.77;;
7273;SDS011;3678;60.002;17.846;2022-10-31T12:37:23;8.57;;;3.90;;
7273;SDS011;3678;60.002;17.846;2022-10-31T12:39:54;7.47;;;3.93;;
7273;SDS011;3678;60.002;17.846;2022-10-31T12:42:27;8.27;;;4.23;;
7273;SDS011;3678;60.002;17.846;2022-10-31T12:50:31;6.80;;;3.90;;
7273;SDS011;3678;60.002;17.846;2022-10-31T12:53:05;9.47;;;3.90;;
7273;SDS011;3678;60.002;17.846;2022-10-31T12:55:38;6.70;;;3.93;;
7273;SDS011;3678;60.002;17.846;2022-10-31T12:58:07;9.80;;;4.33;;
7273;SDS011;3678;60.002;17.846;2022-10-31T13:00:36;6.78;;;4.43;;
7273;SDS011;3678;60.002;17.846;2022-10-31T13:03:08;6.37;;;4.00;;
7273;SDS011;3678;60.002;17.846;2022-10-31T13:05:39;6.53;;;4.60;;
7273;SDS011;3678;60.002;17.846;2022-10-31T13:08:08;12.67;;;4.40;;
7273;SDS011;3678;60.002;17.846;2022-10-31T13:10:37;9.77;;;4.30;;
7273;SDS011;3678;60.002;17.846;2022-10-31T13:13:07;8.57;;;4.53;;
7273;SDS011;3678;60.002;17.846;2022-10-31T13:15:41;9.30;;;4.75;;
7273;SDS011;3678;60.002;17.846;2022-10-31T13:18:13;10.10;;;5.17;;
7273;SDS011;3678;60.002;17.846;2022-10-31T13:20:45;6.80;;;4.37;;
7273;SDS011;3678;60.002;17.846;2022-10-31T13:23:16;8.47;;;4.67;;
7273;SDS011;3678;60.002;17.846;2022-10-31T13:25:46;10.63;;;4.50;;
7273;SDS011;3678;60.002;17.846;2022-10-31T13:28:19;9.23;;;4.77;;
7273;SDS011;3678;60.002;17.846;2022-10-31T13:30:48;9.90;;;4.27;;
7273;SDS011;3678;60.002;17.846;2022-10-31T13:33:16;7.70;;;4.93;;
7273;SDS011;3678;60.002;17.846;2022-10-31T13:35:48;7.53;;;4.50;;
7273;SDS011;3678;60.002;17.846;2022-10-31T13:38:18;9.03;;;4.67;;
7273;SDS011;3678;60.002;17.846;2022-10-31T13:40:50;11.50;;;6.35;;
7273;SDS011;3678;60.002;17.846;2022-10-31T13:43:21;9.70;;;5.23;;
7273;SDS011;3678;60.002;17.846;2022-10-31T13:45:50;10.73;;;5.67;;
7273;SDS011;3678;60.002;17.846;2022-10-31T13:48:19;8.73;;;4.67;;
7273;SDS011;3678;60.002;17.846;2022-10-31T13:50:56;10.53;;;5.57;;
7273;SDS011;3678;60.002;17.846;2022-10-31T13:53:34;8.67;;;4.73;;
7273;SDS011;3678;60.002;17.846;2022-10-31T13:56:03;11.27;;;5.17;;
7273;SDS011;3678;60.002;17.846;2022-10-31T13:58:31;8.97;;;4.70;;
7273;SDS011;3678;60.002;17.846;2022-10-31T14:01:05;11.23;;;4.40;;
7273;SDS011;3678;60.002;17.846;2022-10-31T14:03:39;11.07;;;4.70;;
7273;SDS011;3678;60.002;17.846;2022-10-31T14:06:08;8.60;;;4.70;;
7273;SDS011;3678;60.002;17.846;2022-10-31T14:08:39;6.10;;;4.60;;
7273;SDS011;3678;60.002;17.846;2022-10-31T14:11:07;7.93;;;4.03;;
7273;SDS011;3678;60.002;17.846;2022-10-31T14:13:35;7.37;;;4.30;;
7273;SDS011;3678;60.002;17.846;2022-10-31T14:16:06;7.10;;;4.37;;
7273;SDS011;3678;60.002;17.846;2022-10-31T14:18:43;6.53;;;3.90;;
7273;SDS011;3678;60.002;17.846;2022-10-31T14:21:25;8.27;;;4.07;;
7273;SDS011;3678;60.002;17.846;2022-10-31T14:23:53;6.60;;;4.10;;
7273;SDS011;3678;60.002;17.846;2022-10-31T14:26:29;12.70;;;4.50;;
7273;SDS011;3678;60.002;17.846;2022-10-31T14:28:57;7.80;;;4.17;;
7273;SDS011;3678;60.002;17.846;2022-10-31T14:31:27;5.57;;;3.60;;
7273;SDS011;3678;60.002;17.846;2022-10-31T14:33:57;8.30;;;4.10;;
7273;SDS011;3678;60.002;17.846;2022-10-31T14:36:27;10.60;;;5.23;;
7273;SDS011;3678;60.002;17.846;2022-10-31T14:38:56;7.17;;;4.10;;
7273;SDS011;3678;60.002;17.846;2022-10-31T14:41:31;12.87;;;5.87;;
7273;SDS011;3678;60.002;17.846;2022-10-31T14:47:02;11.55;;;7.15;;
7273;SDS011;3678;60.002;17.846;2022-10-31T14:49:37;13.30;;;5.10;;
7273;SDS011;3678;60.002;17.846;2022-10-31T14:52:11;10.13;;;5.17;;
7273;SDS011;3678;60.002;17.846;2022-10-31T14:54:40;8.57;;;5.33;;
7273;SDS011;3678;60.002;17.846;2022-10-31T14:57:14;11.47;;;5.73;;
7273;SDS011;3678;60.002;17.846;2022-10-31T14:59:42;9.43;;;5.20;;
7273;SDS011;3678;60.002;17.846;2022-10-31T15:02:15;11.93;;;5.67;;
7273;SDS011;3678;60.002;17.846;2022-10-31T15:04:44;13.97;;;6.40;;
7273;SDS011;3678;60.002;17.846;2022-10-31T15:07:15;11.17;;;5.77;;
7273;SDS011;3678;60.002;17.846;2022-10-31T15:09:43;11.03;;;6.10;;
7273;SDS011;3678;60.002;17.846;2022-10-31T15:12:21;14.30;;;7.05;;
7273;SDS011;3678;60.002;17.846;2022-10-31T15:14:49;13.63;;;6.67;;
7273;SDS011;3678;60.002;17.846;2022-10-31T15:17:16;15.37;;;5.93;;
7273;SDS011;3678;60.002;17.846;2022-10-31T15:19:43;14.03;;;5.87;;
7273;SDS011;3678;60.002;17.846;2022-10-31T15:22:13;11.90;;;6.53;;
7273;SDS011;3678;60.002;17.846;2022-10-31T15:24:42;15.87;;;6.40;;